createdAt,value
2019-01-18T00:04:00.796Z,10.37
2019-01-18T00:09:05.223Z,7.43
2019-01-18T00:14:07.209Z,11.40
2019-01-18T00:19:08.884Z,7.23
2019-01-18T00:24:10.407Z,9.50
2019-01-18T00:29:11.969Z,13.40
2019-01-18T00:34:13.511Z,15.23
2019-01-18T00:39:15.159Z,16.87
2019-01-18T00:44:16.687Z,18.33
2019-01-18T00:49:18.251Z,13.70
2019-01-18T00:54:20.111Z,14.77
2019-01-18T00:59:22.356Z,9.80
2019-01-18T01:04:23.862Z,19.07
2019-01-18T01:09:25.428Z,12.80
2019-01-18T01:14:27.048Z,13.50
2019-01-18T01:19:29.048Z,18.63
2019-01-18T01:24:30.619Z,16.77
2019-01-18T01:29:32.165Z,22.33
2019-01-18T01:34:33.712Z,14.90
2019-01-18T01:39:35.216Z,10.47
2019-01-18T01:44:36.916Z,22.13
2019-01-18T01:49:38.457Z,19.47
2019-01-18T01:54:40.174Z,16.70
2019-01-18T01:59:42.459Z,14.93
2019-01-18T02:04:44.222Z,30.23
2019-01-18T02:09:45.743Z,15.63
2019-01-18T02:14:47.317Z,16.87
2019-01-18T02:19:49.255Z,17.23
2019-01-18T02:24:50.807Z,16.30
2019-01-18T02:29:56.559Z,16.70
2019-01-18T02:34:56.220Z,13.53
2019-01-18T02:39:57.793Z,14.53
2019-01-18T02:44:59.315Z,14.73
2019-01-18T02:50:00.878Z,15.07
2019-01-18T02:55:02.602Z,11.70
2019-01-18T03:00:07.571Z,11.97
2019-01-18T03:05:09.960Z,18.50
2019-01-18T03:10:17.107Z,13.40
2019-01-18T03:15:19.018Z,17.07
2019-01-18T03:20:20.550Z,7.97
2019-01-18T03:25:24.421Z,13.07
2019-01-18T03:30:25.923Z,10.80
2019-01-18T03:35:27.640Z,10.27
2019-01-18T03:40:29.511Z,14.77
2019-01-18T03:45:31.026Z,11.23
2019-01-18T03:50:32.579Z,12.40
2019-01-18T03:55:34.568Z,12.53
2019-01-18T04:00:36.488Z,11.77
2019-01-18T04:05:38.417Z,14.90
2019-01-18T04:10:39.981Z,11.90
2019-01-18T04:15:41.524Z,14.63
2019-01-18T04:20:43.103Z,15.03
2019-01-18T04:25:45.008Z,13.33
2019-01-18T04:30:46.571Z,18.03
2019-01-18T04:35:48.095Z,12.37
2019-01-18T04:40:49.638Z,21.33
2019-01-18T04:45:51.174Z,9.90
2019-01-18T04:50:52.710Z,7.93
2019-01-18T04:55:54.268Z,13.23
2019-01-18T05:00:55.826Z,14.73
2019-01-18T05:05:57.682Z,12.50
2019-01-18T05:10:59.261Z,14.80
2019-01-18T05:16:00.826Z,13.10
2019-01-18T05:21:02.405Z,12.73
2019-01-18T05:26:03.922Z,15.47
2019-01-18T05:31:05.484Z,19.33
2019-01-18T05:36:07.024Z,12.57
2019-01-18T05:41:08.689Z,11.50
2019-01-18T05:46:10.229Z,13.23
2019-01-18T05:51:11.935Z,9.93
2019-01-18T05:56:13.808Z,10.33
2019-01-18T06:01:15.385Z,15.43
2019-01-18T06:06:17.460Z,15.63
2019-01-18T06:11:19.064Z,12.00
2019-01-18T06:16:20.829Z,13.23
2019-01-18T06:21:22.401Z,15.07
2019-01-18T06:26:24.062Z,15.27
2019-01-18T06:31:25.629Z,12.57
2019-01-18T06:36:27.170Z,18.33
2019-01-18T06:41:28.826Z,14.63
2019-01-18T06:46:30.454Z,16.47
2019-01-18T06:51:32.061Z,13.67
2019-01-18T06:56:33.820Z,14.37
2019-01-18T07:01:35.363Z,12.67
2019-01-18T07:06:36.950Z,25.17
2019-01-18T07:11:38.519Z,18.50
2019-01-18T07:16:40.078Z,24.37
2019-01-18T07:21:41.651Z,23.40
2019-01-18T07:26:43.159Z,15.13
2019-01-18T07:31:45.084Z,14.60
2019-01-18T07:36:46.599Z,21.17
2019-01-18T07:41:48.199Z,19.00
2019-01-18T07:46:49.733Z,17.53
2019-01-18T07:51:51.292Z,16.23
2019-01-18T07:56:52.897Z,21.73
2019-01-18T08:01:54.450Z,17.20
2019-01-18T08:06:55.991Z,21.97
2019-01-18T08:11:57.549Z,18.87
2019-01-18T08:16:59.098Z,31.17
2019-01-18T08:22:00.672Z,22.97
2019-01-18T08:27:02.264Z,21.30
2019-01-18T08:32:03.919Z,24.03
2019-01-18T08:37:05.551Z,26.70
2019-01-18T08:42:07.087Z,24.17
2019-01-18T08:47:08.695Z,30.20
2019-01-18T08:52:10.235Z,24.00
2019-01-18T08:57:11.840Z,25.33
2019-01-18T09:02:13.455Z,26.53
2019-01-18T09:07:14.972Z,26.07
2019-01-18T09:12:16.800Z,26.00
2019-01-18T09:17:18.319Z,23.93
2019-01-18T09:22:20.003Z,42.27
2019-01-18T09:27:21.561Z,33.53
2019-01-18T09:32:23.107Z,37.10
2019-01-18T09:37:24.628Z,39.37
2019-01-18T09:42:26.793Z,27.53
2019-01-18T09:47:28.678Z,35.90
2019-01-18T09:52:30.209Z,31.87
2019-01-18T09:57:31.739Z,28.23
2019-01-18T10:02:33.293Z,37.93
2019-01-18T10:07:34.841Z,42.60
2019-01-18T10:12:36.514Z,29.57
2019-01-18T10:17:38.141Z,41.07
2019-01-18T10:22:39.946Z,35.10
2019-01-18T10:27:41.561Z,32.80
2019-01-18T10:32:43.061Z,28.10
2019-01-18T10:37:44.980Z,38.87
2019-01-18T10:42:47.269Z,34.60
2019-01-18T10:47:48.898Z,21.63
2019-01-18T10:52:50.504Z,19.13
2019-01-18T10:57:52.054Z,29.67
2019-01-18T11:02:54.171Z,25.50
2019-01-18T11:07:55.698Z,26.63
2019-01-18T11:12:57.726Z,23.63
2019-01-18T11:17:59.244Z,21.70
2019-01-18T11:23:00.944Z,23.97
2019-01-18T11:28:02.595Z,21.97
2019-01-18T11:33:04.114Z,20.90
2019-01-18T11:38:05.965Z,16.73
2019-01-18T11:43:07.596Z,15.73
2019-01-18T11:48:09.124Z,17.97
2019-01-18T11:53:10.930Z,15.53
2019-01-18T11:58:12.634Z,24.87
2019-01-18T12:03:14.139Z,24.70
2019-01-18T12:08:15.690Z,15.40
2019-01-18T12:13:17.215Z,18.37
2019-01-18T12:18:18.944Z,22.90
2019-01-18T12:23:21.043Z,16.97
2019-01-18T12:28:22.664Z,13.20
2019-01-18T12:33:24.247Z,23.60
2019-01-18T12:38:26.926Z,25.40
2019-01-18T12:43:28.461Z,24.33
2019-01-18T12:48:30.089Z,15.73
2019-01-18T12:53:33.141Z,13.57
2019-01-18T12:58:34.692Z,18.37
2019-01-18T13:03:36.273Z,18.43
2019-01-18T13:08:37.780Z,18.53
2019-01-18T13:13:39.336Z,24.67
2019-01-18T13:18:43.054Z,18.50
2019-01-18T13:23:44.690Z,23.77
2019-01-18T13:28:46.311Z,21.17
2019-01-18T13:33:48.874Z,19.77
2019-01-18T13:38:50.410Z,22.07
2019-01-18T13:43:52.540Z,20.83
2019-01-18T13:48:54.071Z,18.87
2019-01-18T13:53:55.687Z,27.23
2019-01-18T13:58:57.325Z,18.63
2019-01-18T14:03:58.867Z,27.53
2019-01-18T14:09:00.790Z,28.37
2019-01-18T14:14:02.331Z,19.50
2019-01-18T14:19:04.141Z,23.83
2019-01-18T14:24:05.667Z,25.83
2019-01-18T14:29:07.218Z,20.33
2019-01-18T14:34:08.797Z,26.07
2019-01-18T14:39:11.570Z,30.60
2019-01-18T14:44:13.361Z,22.80
2019-01-18T14:49:14.967Z,17.17
2019-01-18T14:54:16.532Z,20.00
2019-01-18T14:59:18.085Z,13.53
2019-01-18T15:04:19.678Z,17.43
2019-01-18T15:09:21.291Z,17.60
2019-01-18T15:14:22.854Z,18.13
2019-01-18T15:19:24.385Z,19.37
2019-01-18T15:24:25.893Z,19.63
2019-01-18T15:29:27.473Z,21.07
2019-01-18T15:34:29.187Z,23.30
2019-01-18T15:39:30.787Z,23.03
2019-01-18T15:44:32.466Z,30.20
2019-01-18T15:49:34.672Z,32.20
2019-01-18T15:54:36.243Z,34.17
2019-01-18T15:59:37.804Z,33.03
2019-01-18T16:04:39.339Z,39.23
2019-01-18T16:09:40.873Z,35.50
2019-01-18T16:14:42.736Z,39.90
2019-01-18T16:19:44.579Z,46.42
2019-01-18T16:24:46.359Z,50.13
2019-01-18T16:29:47.886Z,48.17
2019-01-18T16:34:49.505Z,59.07
2019-01-18T16:39:51.141Z,98.73
2019-01-18T16:44:54.081Z,74.13
2019-01-18T16:49:55.699Z,81.97
2019-01-18T16:54:57.372Z,130.73
2019-01-18T16:59:59.563Z,72.73
2019-01-18T17:05:01.120Z,129.47
2019-01-18T17:10:03.436Z,109.90
2019-01-18T17:15:06.612Z,195.90
2019-01-18T17:20:17.864Z,100.60
2019-01-18T17:25:19.665Z,81.93
2019-01-18T17:30:21.396Z,107.20
2019-01-18T17:35:36.368Z,103.00
2019-01-18T17:41:04.087Z,166.80
2019-01-18T17:46:45.714Z,163.63
2019-01-18T17:52:18.610Z,69.80
2019-01-18T17:58:15.951Z,73.47
2019-01-18T18:04:02.253Z,117.47
2019-01-18T18:09:28.571Z,47.70
2019-01-18T18:15:17.888Z,50.00
2019-01-18T18:20:34.741Z,46.33
2019-01-18T18:26:15.394Z,49.60
2019-01-18T18:32:13.950Z,47.07
2019-01-18T18:38:02.697Z,54.53
2019-01-18T18:43:41.812Z,59.33
2019-01-18T18:48:55.457Z,53.00
2019-01-18T18:54:35.412Z,42.20
2019-01-18T19:00:02.243Z,58.30
2019-01-18T19:05:27.624Z,45.07
2019-01-18T19:11:00.633Z,45.13
2019-01-18T19:17:08.489Z,50.30
2019-01-18T19:22:38.309Z,62.27
2019-01-18T19:28:14.734Z,49.90
2019-01-18T19:33:49.130Z,47.30
2019-01-18T19:39:32.625Z,54.43
2019-01-18T19:45:09.495Z,56.70
2019-01-18T19:50:59.533Z,60.80
2019-01-18T19:56:22.030Z,61.53
2019-01-18T20:01:44.798Z,78.77
2019-01-18T20:07:17.064Z,78.87
2019-01-18T20:13:07.357Z,75.93
2019-01-18T20:18:40.312Z,92.00
2019-01-18T20:24:12.499Z,83.90
2019-01-18T20:29:50.463Z,67.47
2019-01-18T20:35:34.579Z,98.50
2019-01-18T20:41:17.537Z,91.53
2019-01-18T20:47:23.166Z,66.07
2019-01-18T20:53:07.853Z,73.47
2019-01-18T20:58:40.462Z,83.83
2019-01-18T21:04:25.360Z,87.57
2019-01-18T21:10:01.720Z,102.77
2019-01-18T21:15:12.023Z,84.50
2019-01-18T21:21:04.575Z,76.60
2019-01-18T21:26:33.674Z,98.93
2019-01-18T21:32:15.320Z,82.37
2019-01-18T21:37:45.260Z,112.57
2019-01-18T21:43:24.178Z,85.67
2019-01-18T21:48:38.535Z,87.23
2019-01-18T21:54:24.353Z,107.47
2019-01-18T22:00:06.227Z,86.00
2019-01-18T22:05:45.237Z,87.07
2019-01-18T22:10:54.413Z,92.63
2019-01-18T22:16:42.700Z,86.70
2019-01-18T22:22:05.392Z,83.13
2019-01-18T22:27:33.676Z,86.60
2019-01-18T22:33:06.743Z,84.40
2019-01-18T22:38:55.712Z,90.27
2019-01-18T22:44:39.717Z,88.83
2019-01-18T22:50:35.140Z,84.83
2019-01-18T22:56:10.870Z,87.63
2019-01-18T23:01:48.109Z,91.70
2019-01-18T23:07:45.682Z,81.83
2019-01-18T23:13:17.127Z,93.93
2019-01-18T23:18:23.978Z,96.97
2019-01-18T23:23:59.941Z,91.27
2019-01-18T23:29:17.835Z,83.50
2019-01-18T23:34:53.423Z,92.40
2019-01-18T23:40:45.228Z,89.17
2019-01-18T23:46:20.136Z,97.27
2019-01-18T23:52:24.771Z,91.73
2019-01-18T23:57:54.539Z,85.87
